sensor_id;sensor_type;location;lat;lon;timestamp;temperature;humidity
12013;DHT22;6065;48.138;16.402;2022-08-21T00:01:02;20.50;99.90
12013;DHT22;6065;48.138;16.402;2022-08-21T00:03:29;20.40;99.90
12013;DHT22;6065;48.138;16.402;2022-08-21T00:05:56;20.40;99.90
12013;DHT22;6065;48.138;16.402;2022-08-21T00:08:23;20.40;99.90
12013;DHT22;6065;48.138;16.402;2022-08-21T00:10:50;20.40;99.90
12013;DHT22;6065;48.138;16.402;2022-08-21T00:13:17;20.40;99.90
12013;DHT22;6065;48.138;16.402;2022-08-21T00:15:45;20.40;99.90
12013;DHT22;6065;48.138;16.402;2022-08-21T00:18:14;20.40;99.90
12013;DHT22;6065;48.138;16.402;2022-08-21T00:20:41;20.40;99.90
12013;DHT22;6065;48.138;16.402;2022-08-21T00:23:08;20.30;99.90
12013;DHT22;6065;48.138;16.402;2022-08-21T00:25:35;20.30;99.90
12013;DHT22;6065;48.138;16.402;2022-08-21T00:28:02;20.30;99.90
12013;DHT22;6065;48.138;16.402;2022-08-21T00:30:29;20.30;99.90
12013;DHT22;6065;48.138;16.402;2022-08-21T00:32:57;20.30;99.90
12013;DHT22;6065;48.138;16.402;2022-08-21T00:35:26;20.40;99.90
12013;DHT22;6065;48.138;16.402;2022-08-21T00:37:53;20.30;99.90
12013;DHT22;6065;48.138;16.402;2022-08-21T00:40:23;20.30;99.90
12013;DHT22;6065;48.138;16.402;2022-08-21T00:42:50;20.30;99.90
12013;DHT22;6065;48.138;16.402;2022-08-21T00:45:17;20.30;99.90
12013;DHT22;6065;48.138;16.402;2022-08-21T00:47:43;20.30;99.90
12013;DHT22;6065;48.138;16.402;2022-08-21T00:50:10;20.30;99.90
12013;DHT22;6065;48.138;16.402;2022-08-21T00:52:39;20.30;99.90
12013;DHT22;6065;48.138;16.402;2022-08-21T00:55:06;20.30;99.90
12013;DHT22;6065;48.138;16.402;2022-08-21T00:57:36;20.30;99.90
12013;DHT22;6065;48.138;16.402;2022-08-21T01:00:04;20.30;99.90
12013;DHT22;6065;48.138;16.402;2022-08-21T01:02:31;20.30;99.90
12013;DHT22;6065;48.138;16.402;2022-08-21T01:04:58;20.30;99.90
12013;DHT22;6065;48.138;16.402;2022-08-21T01:07:25;20.30;99.90
12013;DHT22;6065;48.138;16.402;2022-08-21T01:09:53;20.30;99.90
12013;DHT22;6065;48.138;16.402;2022-08-21T01:12:19;20.30;99.90
12013;DHT22;6065;48.138;16.402;2022-08-21T01:14:46;20.20;99.90
12013;DHT22;6065;48.138;16.402;2022-08-21T01:17:13;20.30;99.90
12013;DHT22;6065;48.138;16.402;2022-08-21T01:19:41;20.30;99.90
12013;DHT22;6065;48.138;16.402;2022-08-21T01:22:09;20.30;99.90
12013;DHT22;6065;48.138;16.402;2022-08-21T01:24:36;20.30;99.90
12013;DHT22;6065;48.138;16.402;2022-08-21T01:27:03;20.30;99.90
12013;DHT22;6065;48.138;16.402;2022-08-21T01:29:31;20.30;99.90
12013;DHT22;6065;48.138;16.402;2022-08-21T01:31:59;20.30;99.90
12013;DHT22;6065;48.138;16.402;2022-08-21T01:34:26;20.30;99.90
12013;DHT22;6065;48.138;16.402;2022-08-21T01:36:52;20.30;99.90
12013;DHT22;6065;48.138;16.402;2022-08-21T01:39:20;20.30;99.90
12013;DHT22;6065;48.138;16.402;2022-08-21T01:41:47;20.30;99.90
12013;DHT22;6065;48.138;16.402;2022-08-21T01:44:14;20.30;99.90
12013;DHT22;6065;48.138;16.402;2022-08-21T01:46:41;20.30;99.90
12013;DHT22;6065;48.138;16.402;2022-08-21T01:49:08;20.30;99.90
12013;DHT22;6065;48.138;16.402;2022-08-21T01:51:34;20.30;99.90
12013;DHT22;6065;48.138;16.402;2022-08-21T01:54:01;20.30;99.90
12013;DHT22;6065;48.138;16.402;2022-08-21T01:56:34;20.30;99.90
12013;DHT22;6065;48.138;16.402;2022-08-21T01:59:01;20.30;99.90
12013;DHT22;6065;48.138;16.402;2022-08-21T02:01:31;20.20;99.90
12013;DHT22;6065;48.138;16.402;2022-08-21T02:03:58;20.20;99.90
12013;DHT22;6065;48.138;16.402;2022-08-21T02:06:27;20.20;99.90
12013;DHT22;6065;48.138;16.402;2022-08-21T02:08:53;20.10;99.90
12013;DHT22;6065;48.138;16.402;2022-08-21T02:11:20;20.10;99.90
12013;DHT22;6065;48.138;16.402;2022-08-21T02:13:48;20.10;99.90
12013;DHT22;6065;48.138;16.402;2022-08-21T02:16:15;20.10;99.90
12013;DHT22;6065;48.138;16.402;2022-08-21T02:18:42;20.10;99.90
12013;DHT22;6065;48.138;16.402;2022-08-21T02:21:09;20.10;99.90
12013;DHT22;6065;48.138;16.402;2022-08-21T02:23:36;20.10;99.90
12013;DHT22;6065;48.138;16.402;2022-08-21T02:26:04;20.00;99.90
12013;DHT22;6065;48.138;16.402;2022-08-21T02:28:32;20.00;99.90
12013;DHT22;6065;48.138;16.402;2022-08-21T02:31:00;19.90;99.90
12013;DHT22;6065;48.138;16.402;2022-08-21T02:33:27;20.00;99.90
12013;DHT22;6065;48.138;16.402;2022-08-21T02:35:54;19.90;99.90
12013;DHT22;6065;48.138;16.402;2022-08-21T02:38:22;19.90;99.90
12013;DHT22;6065;48.138;16.402;2022-08-21T02:40:49;19.90;99.90
12013;DHT22;6065;48.138;16.402;2022-08-21T02:43:16;19.90;99.90
12013;DHT22;6065;48.138;16.402;2022-08-21T02:45:44;19.80;99.90
12013;DHT22;6065;48.138;16.402;2022-08-21T02:48:13;19.80;99.90
12013;DHT22;6065;48.138;16.402;2022-08-21T02:50:42;19.80;99.90
12013;DHT22;6065;48.138;16.402;2022-08-21T02:53:09;19.80;99.90
12013;DHT22;6065;48.138;16.402;2022-08-21T02:55:37;19.80;99.90
12013;DHT22;6065;48.138;16.402;2022-08-21T02:58:04;19.80;99.90
12013;DHT22;6065;48.138;16.402;2022-08-21T03:00:32;19.80;99.90
12013;DHT22;6065;48.138;16.402;2022-08-21T03:02:59;19.70;99.90
12013;DHT22;6065;48.138;16.402;2022-08-21T03:05:28;19.80;99.90
12013;DHT22;6065;48.138;16.402;2022-08-21T03:07:56;19.80;99.90
12013;DHT22;6065;48.138;16.402;2022-08-21T03:10:24;19.70;99.90
12013;DHT22;6065;48.138;16.402;2022-08-21T03:12:51;19.70;99.90
12013;DHT22;6065;48.138;16.402;2022-08-21T03:15:19;19.70;99.90
12013;DHT22;6065;48.138;16.402;2022-08-21T03:17:46;19.70;99.90
12013;DHT22;6065;48.138;16.402;2022-08-21T03:20:13;19.80;99.90
12013;DHT22;6065;48.138;16.402;2022-08-21T03:22:42;19.80;99.90
12013;DHT22;6065;48.138;16.402;2022-08-21T03:25:08;19.80;99.90
12013;DHT22;6065;48.138;16.402;2022-08-21T03:27:36;19.70;99.90
12013;DHT22;6065;48.138;16.402;2022-08-21T03:30:03;19.70;99.90
12013;DHT22;6065;48.138;16.402;2022-08-21T03:32:30;19.70;99.90
12013;DHT22;6065;48.138;16.402;2022-08-21T03:34:57;19.70;99.90
12013;DHT22;6065;48.138;16.402;2022-08-21T03:37:25;19.60;99.90
12013;DHT22;6065;48.138;16.402;2022-08-21T03:39:53;19.60;99.90
12013;DHT22;6065;48.138;16.402;2022-08-21T03:42:20;19.60;99.90
12013;DHT22;6065;48.138;16.402;2022-08-21T03:44:47;19.60;99.90
12013;DHT22;6065;48.138;16.402;2022-08-21T03:47:14;19.70;99.90
12013;DHT22;6065;48.138;16.402;2022-08-21T03:49:40;19.70;99.90
12013;DHT22;6065;48.138;16.402;2022-08-21T03:52:07;19.70;99.90
12013;DHT22;6065;48.138;16.402;2022-08-21T03:54:34;19.70;99.90
12013;DHT22;6065;48.138;16.402;2022-08-21T03:57:02;19.70;99.90
12013;DHT22;6065;48.138;16.402;2022-08-21T03:59:29;19.70;99.90
12013;DHT22;6065;48.138;16.402;2022-08-21T04:01:57;19.70;99.90
12013;DHT22;6065;48.138;16.402;2022-08-21T04:04:24;19.70;99.90
12013;DHT22;6065;48.138;16.402;2022-08-21T04:06:50;19.70;99.90
12013;DHT22;6065;48.138;16.402;2022-08-21T04:09:17;19.70;99.90
12013;DHT22;6065;48.138;16.402;2022-08-21T04:11:45;19.60;99.90
12013;DHT22;6065;48.138;16.402;2022-08-21T04:14:13;19.60;99.90
12013;DHT22;6065;48.138;16.402;2022-08-21T04:16:40;19.60;99.90
12013;DHT22;6065;48.138;16.402;2022-08-21T04:19:07;19.60;99.90
12013;DHT22;6065;48.138;16.402;2022-08-21T04:21:34;19.60;99.90
12013;DHT22;6065;48.138;16.402;2022-08-21T04:24:03;19.60;99.90
12013;DHT22;6065;48.138;16.402;2022-08-21T04:26:29;19.60;99.90
12013;DHT22;6065;48.138;16.402;2022-08-21T04:28:56;19.50;99.90
12013;DHT22;6065;48.138;16.402;2022-08-21T04:31:24;19.50;99.90
12013;DHT22;6065;48.138;16.402;2022-08-21T04:33:51;19.50;99.90
12013;DHT22;6065;48.138;16.402;2022-08-21T04:36:18;19.60;99.90
12013;DHT22;6065;48.138;16.402;2022-08-21T04:38:45;19.60;99.90
12013;DHT22;6065;48.138;16.402;2022-08-21T04:41:11;19.60;99.90
12013;DHT22;6065;48.138;16.402;2022-08-21T04:43:39;19.60;99.90
12013;DHT22;6065;48.138;16.402;2022-08-21T04:46:05;19.60;99.90
12013;DHT22;6065;48.138;16.402;2022-08-21T04:48:34;19.60;99.90
12013;DHT22;6065;48.138;16.402;2022-08-21T04:51:02;19.60;99.90
12013;DHT22;6065;48.138;16.402;2022-08-21T04:53:30;19.60;99.90
12013;DHT22;6065;48.138;16.402;2022-08-21T04:55:58;19.70;99.90
12013;DHT22;6065;48.138;16.402;2022-08-21T04:58:27;19.60;99.90
12013;DHT22;6065;48.138;16.402;2022-08-21T05:00:56;19.60;99.90
12013;DHT22;6065;48.138;16.402;2022-08-21T05:03:24;19.60;99.90
12013;DHT22;6065;48.138;16.402;2022-08-21T05:05:52;19.60;99.90
12013;DHT22;6065;48.138;16.402;2022-08-21T05:08:19;19.60;99.90
12013;DHT22;6065;48.138;16.402;2022-08-21T05:10:47;19.70;99.90
12013;DHT22;6065;48.138;16.402;2022-08-21T05:13:14;19.70;99.90
12013;DHT22;6065;48.138;16.402;2022-08-21T05:15:41;19.70;99.90
12013;DHT22;6065;48.138;16.402;2022-08-21T05:18:08;19.70;99.90
12013;DHT22;6065;48.138;16.402;2022-08-21T05:20:35;19.70;99.90
12013;DHT22;6065;48.138;16.402;2022-08-21T05:23:05;19.70;99.90
12013;DHT22;6065;48.138;16.402;2022-08-21T05:25:33;19.70;99.90
12013;DHT22;6065;48.138;16.402;2022-08-21T05:28:00;19.70;99.90
12013;DHT22;6065;48.138;16.402;2022-08-21T05:30:26;19.70;99.90
12013;DHT22;6065;48.138;16.402;2022-08-21T05:32:55;19.70;99.90
12013;DHT22;6065;48.138;16.402;2022-08-21T05:35:22;19.80;99.90
12013;DHT22;6065;48.138;16.402;2022-08-21T05:37:49;19.80;99.90
12013;DHT22;6065;48.138;16.402;2022-08-21T05:40:17;19.80;99.90
12013;DHT22;6065;48.138;16.402;2022-08-21T05:42:44;19.90;99.90
12013;DHT22;6065;48.138;16.402;2022-08-21T05:45:11;19.90;99.90
12013;DHT22;6065;48.138;16.402;2022-08-21T05:47:38;19.90;99.90
12013;DHT22;6065;48.138;16.402;2022-08-21T05:50:05;19.90;99.90
12013;DHT22;6065;48.138;16.402;2022-08-21T05:52:31;19.90;99.90
12013;DHT22;6065;48.138;16.402;2022-08-21T05:54:58;20.00;99.90
12013;DHT22;6065;48.138;16.402;2022-08-21T05:57:26;20.00;99.90
12013;DHT22;6065;48.138;16.402;2022-08-21T05:59:53;20.00;99.90
12013;DHT22;6065;48.138;16.402;2022-08-21T06:02:20;20.10;99.90
12013;DHT22;6065;48.138;16.402;2022-08-21T06:04:47;20.10;99.90
12013;DHT22;6065;48.138;16.402;2022-08-21T06:07:14;20.10;99.90
12013;DHT22;6065;48.138;16.402;2022-08-21T06:09:41;20.20;99.90
12013;DHT22;6065;48.138;16.402;2022-08-21T06:12:09;20.20;99.90
12013;DHT22;6065;48.138;16.402;2022-08-21T06:14:37;20.30;99.90
12013;DHT22;6065;48.138;16.402;2022-08-21T06:17:05;20.30;99.90
12013;DHT22;6065;48.138;16.402;2022-08-21T06:19:33;20.30;99.90
12013;DHT22;6065;48.138;16.402;2022-08-21T06:21:59;20.30;99.90
12013;DHT22;6065;48.138;16.402;2022-08-21T06:24:26;20.40;99.90
12013;DHT22;6065;48.138;16.402;2022-08-21T06:26:53;20.40;99.90
12013;DHT22;6065;48.138;16.402;2022-08-21T06:29:20;20.40;99.90
12013;DHT22;6065;48.138;16.402;2022-08-21T06:31:48;20.40;99.90
12013;DHT22;6065;48.138;16.402;2022-08-21T06:34:15;20.40;99.90
12013;DHT22;6065;48.138;16.402;2022-08-21T06:36:42;20.50;99.90
12013;DHT22;6065;48.138;16.402;2022-08-21T06:39:09;20.40;99.90
12013;DHT22;6065;48.138;16.402;2022-08-21T06:41:36;20.40;99.90
12013;DHT22;6065;48.138;16.402;2022-08-21T06:44:02;20.50;99.90
12013;DHT22;6065;48.138;16.402;2022-08-21T06:46:29;20.40;99.90
12013;DHT22;6065;48.138;16.402;2022-08-21T06:48:57;20.50;99.90
12013;DHT22;6065;48.138;16.402;2022-08-21T06:51:24;20.50;99.90
12013;DHT22;6065;48.138;16.402;2022-08-21T06:53:52;20.50;99.90
12013;DHT22;6065;48.138;16.402;2022-08-21T06:56:19;20.50;99.90
12013;DHT22;6065;48.138;16.402;2022-08-21T06:58:46;20.60;99.90
12013;DHT22;6065;48.138;16.402;2022-08-21T07:01:13;20.60;99.90
12013;DHT22;6065;48.138;16.402;2022-08-21T07:03:40;20.60;99.90
12013;DHT22;6065;48.138;16.402;2022-08-21T07:06:09;20.60;99.90
12013;DHT22;6065;48.138;16.402;2022-08-21T07:08:37;20.60;99.90
12013;DHT22;6065;48.138;16.402;2022-08-21T07:11:06;20.60;99.90
12013;DHT22;6065;48.138;16.402;2022-08-21T07:13:34;20.60;99.90
12013;DHT22;6065;48.138;16.402;2022-08-21T07:16:01;20.60;99.90
12013;DHT22;6065;48.138;16.402;2022-08-21T07:18:27;20.50;99.90
12013;DHT22;6065;48.138;16.402;2022-08-21T07:20:54;20.50;99.90
12013;DHT22;6065;48.138;16.402;2022-08-21T07:23:24;20.50;99.90
12013;DHT22;6065;48.138;16.402;2022-08-21T07:25:52;20.50;99.90
12013;DHT22;6065;48.138;16.402;2022-08-21T07:28:19;20.50;99.90
12013;DHT22;6065;48.138;16.402;2022-08-21T07:30:46;20.50;99.90
12013;DHT22;6065;48.138;16.402;2022-08-21T07:33:16;20.50;99.90
12013;DHT22;6065;48.138;16.402;2022-08-21T07:35:43;20.50;99.90
12013;DHT22;6065;48.138;16.402;2022-08-21T07:38:10;20.50;99.90
12013;DHT22;6065;48.138;16.402;2022-08-21T07:40:38;20.50;99.90
12013;DHT22;6065;48.138;16.402;2022-08-21T07:43:05;20.50;99.90
12013;DHT22;6065;48.138;16.402;2022-08-21T07:45:31;20.50;99.90
12013;DHT22;6065;48.138;16.402;2022-08-21T07:47:58;20.50;99.90
12013;DHT22;6065;48.138;16.402;2022-08-21T07:50:25;20.50;99.90
12013;DHT22;6065;48.138;16.402;2022-08-21T07:52:52;20.50;99.90
12013;DHT22;6065;48.138;16.402;2022-08-21T07:55:19;20.50;99.90
12013;DHT22;6065;48.138;16.402;2022-08-21T07:57:48;20.50;99.90
12013;DHT22;6065;48.138;16.402;2022-08-21T08:00:16;20.50;99.90
12013;DHT22;6065;48.138;16.402;2022-08-21T08:02:44;20.50;99.90
12013;DHT22;6065;48.138;16.402;2022-08-21T08:05:11;20.40;99.90
12013;DHT22;6065;48.138;16.402;2022-08-21T08:07:38;20.50;99.90
12013;DHT22;6065;48.138;16.402;2022-08-21T08:10:06;20.50;99.90
12013;DHT22;6065;48.138;16.402;2022-08-21T08:12:33;20.50;99.90
12013;DHT22;6065;48.138;16.402;2022-08-21T08:15:01;20.50;99.90
12013;DHT22;6065;48.138;16.402;2022-08-21T08:17:28;20.50;99.90
12013;DHT22;6065;48.138;16.402;2022-08-21T08:19:54;20.50;99.90
12013;DHT22;6065;48.138;16.402;2022-08-21T08:22:22;20.50;99.90
12013;DHT22;6065;48.138;16.402;2022-08-21T08:24:49;20.50;99.90
12013;DHT22;6065;48.138;16.402;2022-08-21T08:27:16;20.50;99.90
12013;DHT22;6065;48.138;16.402;2022-08-21T08:29:43;20.50;99.90
12013;DHT22;6065;48.138;16.402;2022-08-21T08:32:11;20.50;99.90
12013;DHT22;6065;48.138;16.402;2022-08-21T08:34:38;20.50;99.90
12013;DHT22;6065;48.138;16.402;2022-08-21T08:37:05;20.50;99.90
12013;DHT22;6065;48.138;16.402;2022-08-21T08:39:32;20.50;99.90
12013;DHT22;6065;48.138;16.402;2022-08-21T08:41:59;20.50;99.90
12013;DHT22;6065;48.138;16.402;2022-08-21T08:44:28;20.60;99.90
12013;DHT22;6065;48.138;16.402;2022-08-21T08:46:54;20.60;99.90
12013;DHT22;6065;48.138;16.402;2022-08-21T08:49:24;20.60;99.90
12013;DHT22;6065;48.138;16.402;2022-08-21T08:51:55;20.60;99.90
12013;DHT22;6065;48.138;16.402;2022-08-21T08:54:25;20.60;99.90
12013;DHT22;6065;48.138;16.402;2022-08-21T08:56:57;20.60;99.90
12013;DHT22;6065;48.138;16.402;2022-08-21T08:59:25;20.60;99.90
12013;DHT22;6065;48.138;16.402;2022-08-21T09:01:53;20.60;99.90
12013;DHT22;6065;48.138;16.402;2022-08-21T09:04:21;20.60;99.90
12013;DHT22;6065;48.138;16.402;2022-08-21T09:06:58;20.60;99.90
12013;DHT22;6065;48.138;16.402;2022-08-21T09:09:34;20.70;99.90
12013;DHT22;6065;48.138;16.402;2022-08-21T09:12:06;20.70;99.90
12013;DHT22;6065;48.138;16.402;2022-08-21T09:14:42;20.70;99.90
12013;DHT22;6065;48.138;16.402;2022-08-21T09:17:12;20.80;99.90
12013;DHT22;6065;48.138;16.402;2022-08-21T09:19:45;20.90;99.90
12013;DHT22;6065;48.138;16.402;2022-08-21T09:22:19;21.00;99.90
12013;DHT22;6065;48.138;16.402;2022-08-21T09:24:52;21.20;99.90
12013;DHT22;6065;48.138;16.402;2022-08-21T09:27:20;21.30;99.90
12013;DHT22;6065;48.138;16.402;2022-08-21T09:29:48;21.40;99.90
12013;DHT22;6065;48.138;16.402;2022-08-21T09:32:17;21.50;99.90
12013;DHT22;6065;48.138;16.402;2022-08-21T09:34:54;21.50;99.90
12013;DHT22;6065;48.138;16.402;2022-08-21T09:37:23;21.40;99.90
12013;DHT22;6065;48.138;16.402;2022-08-21T09:39:49;21.40;99.90
12013;DHT22;6065;48.138;16.402;2022-08-21T09:42:21;21.30;99.90
12013;DHT22;6065;48.138;16.402;2022-08-21T09:44:48;21.30;99.90
12013;DHT22;6065;48.138;16.402;2022-08-21T09:47:18;21.20;99.90
12013;DHT22;6065;48.138;16.402;2022-08-21T09:49:46;21.20;99.90
12013;DHT22;6065;48.138;16.402;2022-08-21T09:52:15;21.20;99.90
12013;DHT22;6065;48.138;16.402;2022-08-21T09:54:44;21.20;99.90
12013;DHT22;6065;48.138;16.402;2022-08-21T09:57:12;21.20;99.90
12013;DHT22;6065;48.138;16.402;2022-08-21T10:00:06;21.10;99.90
12013;DHT22;6065;48.138;16.402;2022-08-21T10:02:34;21.20;99.90
12013;DHT22;6065;48.138;16.402;2022-08-21T10:05:03;21.30;99.90
12013;DHT22;6065;48.138;16.402;2022-08-21T10:07:31;21.30;99.90
12013;DHT22;6065;48.138;16.402;2022-08-21T10:10:05;21.40;99.90
12013;DHT22;6065;48.138;16.402;2022-08-21T10:12:34;21.30;99.90
12013;DHT22;6065;48.138;16.402;2022-08-21T10:15:06;21.30;99.90
12013;DHT22;6065;48.138;16.402;2022-08-21T10:17:36;21.30;99.90
12013;DHT22;6065;48.138;16.402;2022-08-21T10:20:05;21.30;99.90
12013;DHT22;6065;48.138;16.402;2022-08-21T10:22:37;21.30;99.90
12013;DHT22;6065;48.138;16.402;2022-08-21T10:25:08;21.30;99.90
12013;DHT22;6065;48.138;16.402;2022-08-21T10:27:37;21.30;99.90
12013;DHT22;6065;48.138;16.402;2022-08-21T10:30:08;21.30;99.90
12013;DHT22;6065;48.138;16.402;2022-08-21T10:35:24;21.30;99.90
12013;DHT22;6065;48.138;16.402;2022-08-21T10:37:59;21.30;99.90
12013;DHT22;6065;48.138;16.402;2022-08-21T10:40:29;21.20;99.90
12013;DHT22;6065;48.138;16.402;2022-08-21T10:43:01;21.20;99.90
12013;DHT22;6065;48.138;16.402;2022-08-21T10:45:36;21.20;99.90
12013;DHT22;6065;48.138;16.402;2022-08-21T10:48:05;21.20;99.90
12013;DHT22;6065;48.138;16.402;2022-08-21T10:50:35;21.20;99.90
12013;DHT22;6065;48.138;16.402;2022-08-21T10:53:11;21.20;99.90
12013;DHT22;6065;48.138;16.402;2022-08-21T10:55:43;21.20;99.90
12013;DHT22;6065;48.138;16.402;2022-08-21T10:58:12;21.20;99.90
12013;DHT22;6065;48.138;16.402;2022-08-21T11:00:45;21.20;99.90
12013;DHT22;6065;48.138;16.402;2022-08-21T11:03:13;21.20;99.90
12013;DHT22;6065;48.138;16.402;2022-08-21T11:05:43;21.20;99.90
12013;DHT22;6065;48.138;16.402;2022-08-21T11:08:15;21.20;99.90
12013;DHT22;6065;48.138;16.402;2022-08-21T11:10:46;21.10;99.90
12013;DHT22;6065;48.138;16.402;2022-08-21T11:13:15;21.20;99.90
12013;DHT22;6065;48.138;16.402;2022-08-21T11:15:46;21.10;99.90
12013;DHT22;6065;48.138;16.402;2022-08-21T11:18:16;21.20;99.90
12013;DHT22;6065;48.138;16.402;2022-08-21T11:20:44;21.20;99.90
12013;DHT22;6065;48.138;16.402;2022-08-21T11:23:14;21.30;99.90
12013;DHT22;6065;48.138;16.402;2022-08-21T11:25:44;21.40;99.90
12013;DHT22;6065;48.138;16.402;2022-08-21T11:28:15;21.50;99.90
12013;DHT22;6065;48.138;16.402;2022-08-21T11:30:46;21.60;99.90
12013;DHT22;6065;48.138;16.402;2022-08-21T11:33:19;21.70;99.90
12013;DHT22;6065;48.138;16.402;2022-08-21T11:35:50;21.70;99.90
12013;DHT22;6065;48.138;16.402;2022-08-21T11:38:22;21.80;99.90
12013;DHT22;6065;48.138;16.402;2022-08-21T11:41:03;21.80;99.90
12013;DHT22;6065;48.138;16.402;2022-08-21T11:43:37;21.90;99.90
12013;DHT22;6065;48.138;16.402;2022-08-21T11:46:09;21.90;99.90
12013;DHT22;6065;48.138;16.402;2022-08-21T11:48:40;21.90;99.90
12013;DHT22;6065;48.138;16.402;2022-08-21T11:51:10;21.90;99.90
12013;DHT22;6065;48.138;16.402;2022-08-21T11:53:38;22.00;99.90
12013;DHT22;6065;48.138;16.402;2022-08-21T11:56:07;22.00;99.90
12013;DHT22;6065;48.138;16.402;2022-08-21T11:58:37;21.90;99.90
12013;DHT22;6065;48.138;16.402;2022-08-21T12:01:05;22.00;99.90
12013;DHT22;6065;48.138;16.402;2022-08-21T12:03:32;21.90;99.90
12013;DHT22;6065;48.138;16.402;2022-08-21T12:06:01;21.90;99.90
12013;DHT22;6065;48.138;16.402;2022-08-21T12:08:29;21.90;99.90
12013;DHT22;6065;48.138;16.402;2022-08-21T12:11:00;21.90;99.90
12013;DHT22;6065;48.138;16.402;2022-08-21T12:13:28;21.90;99.90
12013;DHT22;6065;48.138;16.402;2022-08-21T12:16:05;21.90;99.90
12013;DHT22;6065;48.138;16.402;2022-08-21T12:18:32;21.90;99.90
12013;DHT22;6065;48.138;16.402;2022-08-21T12:21:01;21.90;99.90
12013;DHT22;6065;48.138;16.402;2022-08-21T12:23:28;21.90;99.90
12013;DHT22;6065;48.138;16.402;2022-08-21T12:26:00;21.90;99.90
12013;DHT22;6065;48.138;16.402;2022-08-21T12:28:28;21.80;99.90
12013;DHT22;6065;48.138;16.402;2022-08-21T12:30:56;21.80;99.90
12013;DHT22;6065;48.138;16.402;2022-08-21T12:33:25;21.80;99.90
12013;DHT22;6065;48.138;16.402;2022-08-21T12:35:52;21.80;99.90
12013;DHT22;6065;48.138;16.402;2022-08-21T12:38:27;21.70;99.90
12013;DHT22;6065;48.138;16.402;2022-08-21T12:40:55;21.70;99.90
12013;DHT22;6065;48.138;16.402;2022-08-21T12:43:24;21.70;99.90
12013;DHT22;6065;48.138;16.402;2022-08-21T12:45:52;21.60;99.90
12013;DHT22;6065;48.138;16.402;2022-08-21T12:48:20;21.60;99.90
12013;DHT22;6065;48.138;16.402;2022-08-21T12:50:51;21.50;99.90
12013;DHT22;6065;48.138;16.402;2022-08-21T12:53:21;21.50;99.90
12013;DHT22;6065;48.138;16.402;2022-08-21T12:55:51;21.40;99.90
12013;DHT22;6065;48.138;16.402;2022-08-21T12:58:18;21.40;99.90
12013;DHT22;6065;48.138;16.402;2022-08-21T13:00:47;21.40;99.90
12013;DHT22;6065;48.138;16.402;2022-08-21T13:03:15;21.40;99.90
12013;DHT22;6065;48.138;16.402;2022-08-21T13:05:42;21.30;99.90
12013;DHT22;6065;48.138;16.402;2022-08-21T13:08:12;21.40;99.90
12013;DHT22;6065;48.138;16.402;2022-08-21T13:10:40;21.30;99.90
12013;DHT22;6065;48.138;16.402;2022-08-21T13:13:10;21.30;99.90
12013;DHT22;6065;48.138;16.402;2022-08-21T13:15:37;21.30;99.90
12013;DHT22;6065;48.138;16.402;2022-08-21T13:18:05;21.30;99.90
12013;DHT22;6065;48.138;16.402;2022-08-21T13:20:33;21.30;99.90
12013;DHT22;6065;48.138;16.402;2022-08-21T13:23:00;21.30;99.90
12013;DHT22;6065;48.138;16.402;2022-08-21T13:25:30;21.30;99.90
12013;DHT22;6065;48.138;16.402;2022-08-21T13:28:01;21.30;99.90
12013;DHT22;6065;48.138;16.402;2022-08-21T13:30:28;21.30;99.90
12013;DHT22;6065;48.138;16.402;2022-08-21T13:32:56;21.20;99.90
12013;DHT22;6065;48.138;16.402;2022-08-21T13:35:25;21.20;99.90
12013;DHT22;6065;48.138;16.402;2022-08-21T13:37:52;21.20;99.90
12013;DHT22;6065;48.138;16.402;2022-08-21T13:40:23;21.20;99.90
12013;DHT22;6065;48.138;16.402;2022-08-21T13:42:51;21.20;99.90
12013;DHT22;6065;48.138;16.402;2022-08-21T13:45:23;21.20;99.90
12013;DHT22;6065;48.138;16.402;2022-08-21T13:47:50;21.20;99.90
12013;DHT22;6065;48.138;16.402;2022-08-21T13:50:18;21.20;99.90
12013;DHT22;6065;48.138;16.402;2022-08-21T13:52:48;21.20;99.90
12013;DHT22;6065;48.138;16.402;2022-08-21T13:55:16;21.20;99.90
12013;DHT22;6065;48.138;16.402;2022-08-21T13:57:43;21.20;99.90
12013;DHT22;6065;48.138;16.402;2022-08-21T14:00:16;21.20;99.90
12013;DHT22;6065;48.138;16.402;2022-08-21T14:02:44;21.20;99.90
12013;DHT22;6065;48.138;16.402;2022-08-21T14:05:14;21.20;99.90
12013;DHT22;6065;48.138;16.402;2022-08-21T14:07:42;21.20;99.90
12013;DHT22;6065;48.138;16.402;2022-08-21T14:10:11;21.30;99.90
12013;DHT22;6065;48.138;16.402;2022-08-21T14:12:41;21.30;99.90
12013;DHT22;6065;48.138;16.402;2022-08-21T14:15:08;21.30;99.90
12013;DHT22;6065;48.138;16.402;2022-08-21T14:17:37;21.40;99.90
12013;DHT22;6065;48.138;16.402;2022-08-21T14:20:08;21.30;99.90
12013;DHT22;6065;48.138;16.402;2022-08-21T14:22:36;21.40;99.90
12013;DHT22;6065;48.138;16.402;2022-08-21T14:25:05;21.40;99.90
12013;DHT22;6065;48.138;16.402;2022-08-21T14:27:32;21.50;99.90
12013;DHT22;6065;48.138;16.402;2022-08-21T14:30:00;21.50;99.90
12013;DHT22;6065;48.138;16.402;2022-08-21T14:32:28;21.50;99.90
12013;DHT22;6065;48.138;16.402;2022-08-21T14:34:57;21.50;99.90
12013;DHT22;6065;48.138;16.402;2022-08-21T14:37:23;21.60;99.90
12013;DHT22;6065;48.138;16.402;2022-08-21T14:39:50;21.60;99.90
12013;DHT22;6065;48.138;16.402;2022-08-21T14:42:17;21.60;99.90
12013;DHT22;6065;48.138;16.402;2022-08-21T14:44:44;21.60;99.90
12013;DHT22;6065;48.138;16.402;2022-08-21T14:47:11;21.50;99.90
12013;DHT22;6065;48.138;16.402;2022-08-21T14:49:37;21.50;99.90
12013;DHT22;6065;48.138;16.402;2022-08-21T14:52:06;21.50;99.90
12013;DHT22;6065;48.138;16.402;2022-08-21T14:54:33;21.50;99.90
12013;DHT22;6065;48.138;16.402;2022-08-21T14:57:01;21.50;99.90
12013;DHT22;6065;48.138;16.402;2022-08-21T14:59:28;21.50;99.90
12013;DHT22;6065;48.138;16.402;2022-08-21T15:01:55;21.50;99.90
12013;DHT22;6065;48.138;16.402;2022-08-21T15:04:22;21.50;99.90
12013;DHT22;6065;48.138;16.402;2022-08-21T15:06:49;21.50;99.90
12013;DHT22;6065;48.138;16.402;2022-08-21T15:09:17;21.50;99.90
12013;DHT22;6065;48.138;16.402;2022-08-21T15:11:44;21.50;99.90
12013;DHT22;6065;48.138;16.402;2022-08-21T15:14:11;21.50;99.90
12013;DHT22;6065;48.138;16.402;2022-08-21T15:16:41;21.50;99.90
12013;DHT22;6065;48.138;16.402;2022-08-21T15:19:07;21.50;99.90
12013;DHT22;6065;48.138;16.402;2022-08-21T15:21:34;21.50;99.90
12013;DHT22;6065;48.138;16.402;2022-08-21T15:24:01;21.50;99.90
12013;DHT22;6065;48.138;16.402;2022-08-21T15:26:29;21.40;99.90
12013;DHT22;6065;48.138;16.402;2022-08-21T15:28:56;21.40;99.90
12013;DHT22;6065;48.138;16.402;2022-08-21T15:31:22;21.40;99.90
12013;DHT22;6065;48.138;16.402;2022-08-21T15:33:49;21.40;99.90
12013;DHT22;6065;48.138;16.402;2022-08-21T15:36:16;21.50;99.90
12013;DHT22;6065;48.138;16.402;2022-08-21T15:38:43;21.40;99.90